• Join FlightAware (Why Join?)
  • Login
  • US Flag 
09:33PM EDT


 

Airport Tracker/Info


-or-


 

Live Flight TrackerFlight Track Log ✈ UAL395 ✈ 06-Oct-2013 ✈ KFLL - KIAD

Flight Track Log - Related Links

Times and Time Zones

All times are in EDT time to prevent confusion due to time zone crossing. See the UAL395 flight status page for this flight to view local times or setup timezone preferences in your user account.

Time Position Orientation Groundspeed Altitude Reporting Facility
EDT Latitude Longitude Course Direction KTS MPH feet Rate Location/Type
06:47PM 26.0769 -80.1392 50° Northeast 147 169 800  Level Miami Center
06:47PM 26.0756 -80.1111 93° East 182 209 1,200 1,860 Climbing Miami Center
06:48PM 26.0856 -80.0353 82° East 257 296 3,700 2,820 Climbing Miami Center
06:49PM 26.1103 -79.9547 71° East 277 319 7,000 2,880 Climbing Miami Center
06:50PM 26.4079 -80.0915 56° Northeast  Level Estimated
06:50PM 26.1300 -79.9114 63° Northeast 295 339 8,500  Level Miami Center
06:51PM 26.5196 -80.0710 56° Northeast  Level Estimated
06:51PM 26.1631 -79.8267 66° East 295 339 10,500  Level Miami Center
06:52PM 26.6314 -80.0504 50° Northeast  Level Estimated
06:52PM 26.2131 -79.7331 59° Northeast 312 359 11,300  Level Miami Center
06:53PM 26.2839 -79.6211 55° Northeast 363 418 13,100 1,800 Climbing Miami Center
06:54PM 26.3464 -79.5297 53° Northeast 398 458 15,000 1,800 Climbing Miami Center
06:55PM 26.4214 -79.4156 54° Northeast 414 476 16,700 1,740 Climbing Miami Center
06:56PM 26.4878 -79.3172 53° Northeast 429 494 18,500 1,680 Climbing Miami Center
06:57PM 26.5956 -79.2567 27° Northeast 421 484 20,100 1,380 Climbing Miami Center
06:58PM 26.7153 -79.2125 18° North 421 484 21,300 1,200 Climbing Miami Center
06:59PM 26.8350 -79.1683 18° North 438 504 22,500 1,140 Climbing Miami Center
07:00PM 26.9569 -79.1219 19° North 443 510 23,600 1,200 Climbing Miami Center
07:01PM 27.0828 -79.0917 12° North 452 520 24,900 1,200 Climbing Miami Center
07:02PM 27.2250 -79.0686 North 466 536 26,000 900 Climbing Miami Center
07:03PM 27.3569 -79.0478 North 466 536 26,800 840 Climbing Miami Center
07:04PM 27.4867 -79.0292 North 471 542 27,700 1,020 Climbing Miami Center
07:05PM 27.6039 -79.0103 North 466 536 28,900 1,620 Climbing Miami Center
07:06PM 27.7336 -78.9869 North 466 536 31,000 1,860 Climbing Miami Center
07:07PM 27.8675 -78.9683 North 447 514 32,700 960 Climbing Miami Center
07:08PM 27.9847 -78.9494 North 435 501 33,000 60 Climbing Miami Center
07:09PM 28.1083 -78.9281 North 435 501 32,900  Descending Miami Center
07:10PM 28.2358 -78.9114 North 440 506 33,000  Climbing Miami Center
07:11PM 28.3614 -78.8903 North 448 516 33,000 360 Level Miami Center
07:12PM 28.4869 -78.8714 North 448 516 33,800 900 Climbing Miami Center
07:13PM 28.6103 -78.8497 North 442 509 34,800 600 Climbing Miami Center
07:14PM 28.7317 -78.8331 North 442 509 35,000 60 Climbing Miami Center
07:15PM 28.8508 -78.8114 North 441 507 35,000  Level Miami Center
07:16PM 28.9742 -78.7922 North 446 513 35,000 -60 Level Miami Center
07:17PM 29.1017 -78.7731 North 446 513 34,900  Descending Miami Center
07:18PM 29.2061 -78.7608 North 446 513 35,000  Climbing Miami Center
07:19PM 29.3483 -78.7322 10° North 446 513 35,000  Level Miami Center
07:20PM 29.4697 -78.7106 North 440 506 35,000 -60 Level Miami Center
07:21PM 29.5972 -78.6958 North 446 513 34,900 -60 Descending Miami Center
07:22PM 29.7183 -78.6764 North 446 513 34,900  Level Miami Center
07:24PM 29.9906 -78.6289 North 462 532 35,000  Climbing Jacksonville Center
07:25PM 30.1131 -78.6092 North 462 532 35,000  Level Jacksonville Center
07:26PM 30.2333 -78.5869 North 442 509 35,000  Level Jacksonville Center
07:27PM 30.3558 -78.5669 North 437 503 35,000  Level Jacksonville Center
07:28PM 30.4783 -78.5447 North 449 517 35,000  Level Jacksonville Center
07:29PM 30.6050 -78.5267 North 449 517 35,000  Level Jacksonville Center
07:30PM 30.7275 -78.5067 North 444 511 35,000  Level Jacksonville Center
07:31PM 30.8542 -78.4839 North 444 511 35,000  Level Jacksonville Center
07:32PM 30.9703 -78.4639 North 444 511 35,000  Level Jacksonville Center
07:33PM 31.0989 -78.4433 North 444 511 35,000  Level Jacksonville Center
07:34PM 31.2233 -78.4203 North 444 511 35,000  Level Jacksonville Center
07:35PM 31.3481 -78.4000 North 444 511 35,000  Level Jacksonville Center
07:36PM 31.4725 -78.3792 North 444 511 35,000  Level Jacksonville Center
07:37PM 31.5969 -78.3586 North 449 517 35,000  Level Jacksonville Center
07:38PM 31.7214 -78.3353 North 449 517 35,000  Level Jacksonville Center
07:39PM 31.8439 -78.3194 North 443 510 35,000  Level Jacksonville Center
07:40PM 31.9703 -78.2961 North 451 519 35,000  Level Jacksonville Center
07:41PM 32.0969 -78.2728 North 451 519 35,000  Level Jacksonville Center
07:42PM 32.2194 -78.2542 North 446 513 35,000  Level Jacksonville Center
07:43PM 32.3603 -78.2250 10° North 446 513 35,000  Level Jacksonville Center
07:44PM 32.4867 -78.2011 North 451 519 35,000  Level Jacksonville Center
07:45PM 32.6111 -78.1825 North 451 519 35,000  Level Jacksonville Center
07:47PM 32.7886 -78.1500 North 453 521 35,000  Level Washington Center
07:48PM 32.9144 -78.1264 North 453 521 35,000  Level Washington Center
07:49PM 33.0419 -78.1056 North 453 521 35,000  Level Washington Center
07:50PM 33.1675 -78.0844 North 453 521 35,000  Level Washington Center
07:51PM 33.2953 -78.0633 North 453 521 35,000  Level Washington Center
07:52PM 33.4231 -78.0397 North 453 521 35,000  Level Washington Center
07:53PM 33.5611 -78.0164 North 453 521 35,000  Level Washington Center
07:54PM 33.6761 -77.9947 North 458 527 35,000  Level Washington Center
07:55PM 33.8122 -77.9714 North 458 527 35,000  Level Washington Center
07:56PM 33.9506 -77.9450 North 468 539 35,000  Level Washington Center
07:57PM 34.0803 -77.9239 North 473 544 35,000  Level Washington Center
07:58PM 34.2081 -77.9022 North 468 539 35,000  Level Washington Center
07:59PM 34.3419 -77.8808 North 473 544 35,000  Level Washington Center
08:00PM 34.4692 -77.8744 North 473 544 35,000  Level Washington Center
08:01PM 34.5986 -77.8728 North 462 532 35,000  Level Washington Center
08:02PM 34.7303 -77.8714 360° North 462 532 35,000  Level Washington Center
08:03PM 34.8556 -77.8675 North 455 524 35,000  Level Washington Center
08:04PM 34.9869 -77.8636 North 460 529 35,000  Level Washington Center
08:05PM 35.1183 -77.8622 360° North 460 529 35,000  Level Washington Center
08:06PM 35.2478 -77.8606 North 460 529 35,000  Level Washington Center
08:07PM 35.3836 -77.8569 North 465 535 35,000 -180 Level Washington Center
08:08PM 35.5128 -77.8553 North 465 535 34,700 -660 Descending Washington Center
08:09PM 35.6486 -77.8542 360° North 470 541 33,700 -900 Descending Washington Center
08:10PM 35.7800 -77.8553 360° North 476 548 33,000 -360 Descending Washington Center
08:11PM 35.9156 -77.8514 North 476 548 33,000  Level Washington Center
08:12PM 36.0367 -77.8525 360° North 482 555 33,000 -840 Level Washington Center
08:13PM 36.1744 -77.8486 North 482 555 31,400 -1,980 Descending Washington Center
08:14PM 36.3081 -77.8472 360° North 475 547 29,100 -2,220 Descending Washington Center
08:15PM 36.4333 -77.8458 North 470 541 27,100 -1,080 Descending Washington Center
08:16PM 36.5583 -77.8442 North 456 525 27,000 -600 Descending Washington Center
08:17PM 36.6817 -77.8425 North 451 519 26,000 -1,860 Descending Washington Center
08:18PM 36.8108 -77.8411 360° North 451 519 23,400 -1,860 Descending Washington Center
08:19PM 36.9361 -77.8394 North 451 519 22,300 -720 Descending Washington Center
08:20PM 37.0572 -77.8353 North 439 505 22,000 -180 Descending Washington Center
08:21PM 37.1761 -77.8336 North 433 498 22,000  Level Washington Center
08:22PM 37.2914 -77.8056 11° North 428 493 22,000  Level Washington Center
08:23PM 37.4092 -77.7619 16° North 423 487 22,000 -300 Level Washington Center
08:24PM 37.5206 -77.7128 19° North 423 487 21,400 -1,680 Descending Washington Center
08:25PM 37.6381 -77.6661 17° North 428 493 18,700 -2,460 Descending Washington Center
08:26PM 37.7558 -77.6169 18° North 428 493 16,400 -2,220 Descending Washington Center
08:27PM 37.8628 -77.5750 17° North 423 487 14,400 -1,980 Descending Washington Center
08:28PM 37.9678 -77.5331 17° North 406 467 12,600 -1,680 Descending Washington Center
08:29PM 38.0706 -77.4933 17° North 391 450 11,100 -1,200 Descending Washington Center
08:30PM 38.1631 -77.4561 18° North 368 423 10,200 -960 Descending Washington Center
08:31PM 38.2450 -77.4106 24° Northeast 336 387 9,200 -1,020 Descending Washington Center
08:32PM 38.3228 -77.3622 26° Northeast 314 361 8,200 -1,080 Descending Washington Center
08:33PM 38.4106 -77.3564 North 304 350 7,100 -1,080 Descending Washington Center
08:34PM 38.4958 -77.3611 358° North 299 344 6,100 -1,020 Descending Washington Center
08:35PM 38.5772 -77.3656 358° North 293 337 5,100 -780 Descending Washington Center
08:36PM 38.6833 -77.3667 360° North 296 341 4,500 -480 Descending Potomac TRACON
08:37PM 38.7667 -77.3500 North 296 341 4,100 -660 Descending Potomac TRACON
08:38PM 38.8500 -77.3500 360° North 295 339 3,200 -600 Descending Potomac TRACON
08:39PM 38.9167 -77.3500 360° North 260 299 3,000 -120 Descending Potomac TRACON
08:40PM 38.9833 -77.3500 360° North 232 267 3,000  Level Potomac TRACON
08:41PM 39.0500 -77.3500 360° North 230 265 3,000 -300 Level Potomac TRACON
08:42PM 39.1000 -77.3833 333° Northwest 225 259 2,500 -420 Descending Potomac TRACON
08:43PM 39.0833 -77.4167 237° Southwest 158 182 2,200 -360 Descending Potomac TRACON
08:44PM 39.0333 -77.4333 195° South 152 175 1,800 -540 Descending Potomac TRACON
08:45PM 39.0000 -77.4333 180° South 128 147 1,200 -600 Descending Potomac TRACON